sensor_id;sensor_type;location;lat;lon;timestamp;P1;durP1;ratioP1;P2;durP2;ratioP2
53644;SDS011;39547;45.554;12.068;2024-03-29T00:05:41;38.95;;;27.33;;
53644;SDS011;39547;45.554;12.068;2024-03-29T00:11:43;46.13;;;32.33;;
53644;SDS011;39547;45.554;12.068;2024-03-29T00:17:45;49.03;;;34.50;;
53644;SDS011;39547;45.554;12.068;2024-03-29T00:23:47;44.70;;;31.88;;
53644;SDS011;39547;45.554;12.068;2024-03-29T00:29:56;45.30;;;32.53;;
53644;SDS011;39547;45.554;12.068;2024-03-29T00:36:19;47.92;;;33.97;;
53644;SDS011;39547;45.554;12.068;2024-03-29T00:42:24;47.00;;;32.42;;
53644;SDS011;39547;45.554;12.068;2024-03-29T00:48:29;44.55;;;32.15;;
53644;SDS011;39547;45.554;12.068;2024-03-29T00:54:33;44.67;;;30.95;;
53644;SDS011;39547;45.554;12.068;2024-03-29T01:00:35;48.05;;;33.60;;
53644;SDS011;39547;45.554;12.068;2024-03-29T01:06:37;51.33;;;34.80;;
53644;SDS011;39547;45.554;12.068;2024-03-29T01:12:39;48.72;;;32.90;;
53644;SDS011;39547;45.554;12.068;2024-03-29T01:18:42;48.92;;;33.45;;
53644;SDS011;39547;45.554;12.068;2024-03-29T01:24:52;55.08;;;36.17;;
53644;SDS011;39547;45.554;12.068;2024-03-29T01:30:54;50.33;;;34.78;;
53644;SDS011;39547;45.554;12.068;2024-03-29T01:36:56;49.47;;;34.13;;
53644;SDS011;39547;45.554;12.068;2024-03-29T01:43:00;52.78;;;35.83;;
53644;SDS011;39547;45.554;12.068;2024-03-29T01:49:02;49.87;;;33.70;;
53644;SDS011;39547;45.554;12.068;2024-03-29T01:55:07;51.78;;;34.17;;
53644;SDS011;39547;45.554;12.068;2024-03-29T02:01:09;50.53;;;33.60;;
53644;SDS011;39547;45.554;12.068;2024-03-29T02:07:12;54.42;;;34.72;;
53644;SDS011;39547;45.554;12.068;2024-03-29T02:13:14;51.13;;;33.35;;
53644;SDS011;39547;45.554;12.068;2024-03-29T02:19:24;53.97;;;35.00;;
53644;SDS011;39547;45.554;12.068;2024-03-29T02:26:09;53.53;;;33.97;;
53644;SDS011;39547;45.554;12.068;2024-03-29T02:32:12;56.03;;;34.55;;
53644;SDS011;39547;45.554;12.068;2024-03-29T02:38:14;54.08;;;34.08;;
53644;SDS011;39547;45.554;12.068;2024-03-29T02:44:15;50.17;;;30.65;;
53644;SDS011;39547;45.554;12.068;2024-03-29T02:50:17;49.92;;;31.45;;
53644;SDS011;39547;45.554;12.068;2024-03-29T02:56:19;52.58;;;33.13;;
53644;SDS011;39547;45.554;12.068;2024-03-29T03:02:24;55.72;;;34.70;;
53644;SDS011;39547;45.554;12.068;2024-03-29T03:08:26;56.50;;;34.53;;
53644;SDS011;39547;45.554;12.068;2024-03-29T03:14:46;54.00;;;33.40;;
53644;SDS011;39547;45.554;12.068;2024-03-29T03:20:51;53.40;;;33.53;;
53644;SDS011;39547;45.554;12.068;2024-03-29T03:26:56;55.13;;;34.92;;
53644;SDS011;39547;45.554;12.068;2024-03-29T03:32:58;58.42;;;35.85;;
53644;SDS011;39547;45.554;12.068;2024-03-29T03:39:00;54.22;;;33.85;;
53644;SDS011;39547;45.554;12.068;2024-03-29T03:45:01;54.58;;;33.50;;
53644;SDS011;39547;45.554;12.068;2024-03-29T03:51:04;60.47;;;36.22;;
53644;SDS011;39547;45.554;12.068;2024-03-29T03:57:06;56.85;;;35.40;;
53644;SDS011;39547;45.554;12.068;2024-03-29T04:03:08;53.35;;;33.90;;
53644;SDS011;39547;45.554;12.068;2024-03-29T04:09:10;58.00;;;36.42;;
53644;SDS011;39547;45.554;12.068;2024-03-29T04:15:11;59.72;;;36.22;;
53644;SDS011;39547;45.554;12.068;2024-03-29T04:21:13;62.80;;;37.90;;
53644;SDS011;39547;45.554;12.068;2024-03-29T04:27:15;61.38;;;37.67;;
53644;SDS011;39547;45.554;12.068;2024-03-29T04:33:49;60.60;;;36.78;;
53644;SDS011;39547;45.554;12.068;2024-03-29T04:39:51;62.72;;;38.00;;
53644;SDS011;39547;45.554;12.068;2024-03-29T04:46:02;64.28;;;38.58;;
53644;SDS011;39547;45.554;12.068;2024-03-29T04:52:11;60.80;;;36.08;;
53644;SDS011;39547;45.554;12.068;2024-03-29T04:58:14;61.58;;;37.67;;
53644;SDS011;39547;45.554;12.068;2024-03-29T05:04:16;72.88;;;40.85;;
53644;SDS011;39547;45.554;12.068;2024-03-29T05:10:26;62.13;;;37.20;;
53644;SDS011;39547;45.554;12.068;2024-03-29T05:16:27;65.60;;;37.10;;
53644;SDS011;39547;45.554;12.068;2024-03-29T05:22:30;62.38;;;36.63;;
53644;SDS011;39547;45.554;12.068;2024-03-29T05:28:32;62.40;;;36.50;;
53644;SDS011;39547;45.554;12.068;2024-03-29T05:34:33;56.08;;;33.75;;
53644;SDS011;39547;45.554;12.068;2024-03-29T05:40:35;64.03;;;34.92;;
53644;SDS011;39547;45.554;12.068;2024-03-29T05:46:38;56.70;;;34.13;;
53644;SDS011;39547;45.554;12.068;2024-03-29T05:52:50;59.00;;;34.35;;
53644;SDS011;39547;45.554;12.068;2024-03-29T05:58:58;59.78;;;35.17;;
53644;SDS011;39547;45.554;12.068;2024-03-29T06:05:00;59.42;;;33.58;;
53644;SDS011;39547;45.554;12.068;2024-03-29T06:11:02;57.22;;;33.33;;
53644;SDS011;39547;45.554;12.068;2024-03-29T06:17:05;61.75;;;33.90;;
53644;SDS011;39547;45.554;12.068;2024-03-29T06:23:28;58.90;;;34.17;;
53644;SDS011;39547;45.554;12.068;2024-03-29T06:29:30;61.80;;;34.42;;
53644;SDS011;39547;45.554;12.068;2024-03-29T06:35:33;62.92;;;35.85;;
53644;SDS011;39547;45.554;12.068;2024-03-29T06:41:36;63.15;;;35.00;;
53644;SDS011;39547;45.554;12.068;2024-03-29T06:47:38;59.42;;;32.90;;
53644;SDS011;39547;45.554;12.068;2024-03-29T06:53:47;63.88;;;34.47;;
53644;SDS011;39547;45.554;12.068;2024-03-29T07:05:53;52.72;;;29.30;;
53644;SDS011;39547;45.554;12.068;2024-03-29T07:17:59;45.38;;;25.25;;
53644;SDS011;39547;45.554;12.068;2024-03-29T07:24:10;43.47;;;22.73;;
53644;SDS011;39547;45.554;12.068;2024-03-29T07:30:12;40.85;;;21.20;;
53644;SDS011;39547;45.554;12.068;2024-03-29T07:36:15;33.40;;;18.08;;
53644;SDS011;39547;45.554;12.068;2024-03-29T07:48:21;30.75;;;16.73;;
53644;SDS011;39547;45.554;12.068;2024-03-29T08:00:33;30.13;;;15.90;;
53644;SDS011;39547;45.554;12.068;2024-03-29T08:06:35;26.58;;;14.63;;
53644;SDS011;39547;45.554;12.068;2024-03-29T08:12:38;24.40;;;13.18;;
53644;SDS011;39547;45.554;12.068;2024-03-29T08:18:40;25.83;;;12.90;;
53644;SDS011;39547;45.554;12.068;2024-03-29T08:24:42;24.60;;;12.77;;
53644;SDS011;39547;45.554;12.068;2024-03-29T08:30:45;24.45;;;12.77;;
53644;SDS011;39547;45.554;12.068;2024-03-29T08:36:48;26.33;;;12.80;;
53644;SDS011;39547;45.554;12.068;2024-03-29T08:42:50;26.08;;;11.93;;
53644;SDS011;39547;45.554;12.068;2024-03-29T08:48:57;24.27;;;12.15;;
53644;SDS011;39547;45.554;12.068;2024-03-29T08:54:59;23.02;;;11.75;;
53644;SDS011;39547;45.554;12.068;2024-03-29T09:01:00;22.55;;;11.60;;
53644;SDS011;39547;45.554;12.068;2024-03-29T09:07:05;25.25;;;12.18;;
53644;SDS011;39547;45.554;12.068;2024-03-29T09:13:07;21.98;;;11.32;;
53644;SDS011;39547;45.554;12.068;2024-03-29T09:19:10;21.17;;;10.65;;
53644;SDS011;39547;45.554;12.068;2024-03-29T09:25:12;19.23;;;9.73;;
53644;SDS011;39547;45.554;12.068;2024-03-29T09:31:17;19.55;;;9.00;;
53644;SDS011;39547;45.554;12.068;2024-03-29T09:37:19;18.55;;;9.02;;
53644;SDS011;39547;45.554;12.068;2024-03-29T09:43:21;17.70;;;8.35;;
53644;SDS011;39547;45.554;12.068;2024-03-29T09:49:24;19.33;;;8.60;;
53644;SDS011;39547;45.554;12.068;2024-03-29T09:55:26;16.80;;;7.38;;
53644;SDS011;39547;45.554;12.068;2024-03-29T10:01:29;16.30;;;6.38;;
53644;SDS011;39547;45.554;12.068;2024-03-29T10:07:32;16.08;;;6.57;;
53644;SDS011;39547;45.554;12.068;2024-03-29T10:13:38;17.38;;;7.07;;
53644;SDS011;39547;45.554;12.068;2024-03-29T10:19:39;16.42;;;6.47;;
53644;SDS011;39547;45.554;12.068;2024-03-29T10:25:42;17.73;;;6.95;;
53644;SDS011;39547;45.554;12.068;2024-03-29T10:31:45;16.65;;;6.47;;
53644;SDS011;39547;45.554;12.068;2024-03-29T10:37:55;16.73;;;6.38;;
53644;SDS011;39547;45.554;12.068;2024-03-29T10:43:56;15.10;;;5.95;;
53644;SDS011;39547;45.554;12.068;2024-03-29T10:50:00;14.82;;;5.97;;
53644;SDS011;39547;45.554;12.068;2024-03-29T10:56:05;16.40;;;6.63;;
53644;SDS011;39547;45.554;12.068;2024-03-29T11:02:12;18.57;;;6.93;;
53644;SDS011;39547;45.554;12.068;2024-03-29T11:08:23;16.73;;;6.57;;
53644;SDS011;39547;45.554;12.068;2024-03-29T11:14:37;14.93;;;6.32;;
53644;SDS011;39547;45.554;12.068;2024-03-29T11:20:44;16.80;;;5.93;;
53644;SDS011;39547;45.554;12.068;2024-03-29T11:26:51;15.82;;;5.72;;
53644;SDS011;39547;45.554;12.068;2024-03-29T11:32:53;16.38;;;5.82;;
53644;SDS011;39547;45.554;12.068;2024-03-29T11:38:57;16.70;;;5.97;;
53644;SDS011;39547;45.554;12.068;2024-03-29T11:44:59;16.10;;;5.90;;
53644;SDS011;39547;45.554;12.068;2024-03-29T11:51:04;16.23;;;5.60;;
53644;SDS011;39547;45.554;12.068;2024-03-29T11:57:07;16.60;;;5.38;;
53644;SDS011;39547;45.554;12.068;2024-03-29T12:03:09;14.82;;;5.15;;
53644;SDS011;39547;45.554;12.068;2024-03-29T12:09:10;16.65;;;5.30;;
53644;SDS011;39547;45.554;12.068;2024-03-29T12:15:12;16.77;;;5.22;;
53644;SDS011;39547;45.554;12.068;2024-03-29T12:21:14;14.50;;;5.07;;
53644;SDS011;39547;45.554;12.068;2024-03-29T12:27:17;16.50;;;5.25;;
53644;SDS011;39547;45.554;12.068;2024-03-29T12:33:19;17.73;;;5.18;;
53644;SDS011;39547;45.554;12.068;2024-03-29T12:39:22;15.02;;;4.57;;
53644;SDS011;39547;45.554;12.068;2024-03-29T12:51:29;17.77;;;5.10;;
53644;SDS011;39547;45.554;12.068;2024-03-29T12:57:31;14.13;;;4.75;;
53644;SDS011;39547;45.554;12.068;2024-03-29T13:03:32;14.40;;;4.60;;
53644;SDS011;39547;45.554;12.068;2024-03-29T13:09:34;17.17;;;5.40;;
53644;SDS011;39547;45.554;12.068;2024-03-29T13:15:36;17.58;;;5.13;;
53644;SDS011;39547;45.554;12.068;2024-03-29T13:21:39;15.20;;;4.97;;
53644;SDS011;39547;45.554;12.068;2024-03-29T13:27:41;15.65;;;4.70;;
53644;SDS011;39547;45.554;12.068;2024-03-29T13:33:44;15.73;;;5.23;;
53644;SDS011;39547;45.554;12.068;2024-03-29T13:39:46;16.48;;;4.95;;
53644;SDS011;39547;45.554;12.068;2024-03-29T13:45:48;15.13;;;4.70;;
53644;SDS011;39547;45.554;12.068;2024-03-29T13:51:51;16.58;;;4.90;;
53644;SDS011;39547;45.554;12.068;2024-03-29T13:57:53;16.02;;;5.40;;
53644;SDS011;39547;45.554;12.068;2024-03-29T14:03:56;16.48;;;5.13;;
53644;SDS011;39547;45.554;12.068;2024-03-29T14:09:57;15.65;;;5.18;;
53644;SDS011;39547;45.554;12.068;2024-03-29T14:16:02;15.45;;;5.18;;
53644;SDS011;39547;45.554;12.068;2024-03-29T14:22:05;16.65;;;4.70;;
53644;SDS011;39547;45.554;12.068;2024-03-29T14:28:07;14.25;;;4.60;;
53644;SDS011;39547;45.554;12.068;2024-03-29T14:34:10;16.42;;;4.78;;
53644;SDS011;39547;45.554;12.068;2024-03-29T14:40:13;14.95;;;4.93;;
53644;SDS011;39547;45.554;12.068;2024-03-29T14:46:21;15.25;;;4.25;;
53644;SDS011;39547;45.554;12.068;2024-03-29T14:52:23;16.25;;;4.70;;
53644;SDS011;39547;45.554;12.068;2024-03-29T14:58:25;15.15;;;4.40;;
53644;SDS011;39547;45.554;12.068;2024-03-29T15:04:26;15.70;;;4.35;;
53644;SDS011;39547;45.554;12.068;2024-03-29T15:10:28;14.90;;;3.70;;
53644;SDS011;39547;45.554;12.068;2024-03-29T15:16:32;14.55;;;4.03;;
53644;SDS011;39547;45.554;12.068;2024-03-29T15:22:37;15.93;;;4.00;;
53644;SDS011;39547;45.554;12.068;2024-03-29T15:28:39;15.25;;;3.80;;
53644;SDS011;39547;45.554;12.068;2024-03-29T15:34:59;15.25;;;4.25;;
53644;SDS011;39547;45.554;12.068;2024-03-29T15:41:04;14.48;;;4.13;;
53644;SDS011;39547;45.554;12.068;2024-03-29T15:47:08;17.02;;;4.38;;
53644;SDS011;39547;45.554;12.068;2024-03-29T15:53:10;16.50;;;4.30;;
53644;SDS011;39547;45.554;12.068;2024-03-29T15:59:12;16.08;;;4.35;;
53644;SDS011;39547;45.554;12.068;2024-03-29T16:05:14;17.40;;;4.72;;
53644;SDS011;39547;45.554;12.068;2024-03-29T16:11:16;18.80;;;4.70;;
53644;SDS011;39547;45.554;12.068;2024-03-29T16:17:18;16.30;;;4.65;;
53644;SDS011;39547;45.554;12.068;2024-03-29T16:23:22;15.75;;;4.68;;
53644;SDS011;39547;45.554;12.068;2024-03-29T16:29:24;18.20;;;4.72;;
53644;SDS011;39547;45.554;12.068;2024-03-29T16:41:31;17.88;;;5.32;;
53644;SDS011;39547;45.554;12.068;2024-03-29T16:47:32;21.00;;;5.78;;
53644;SDS011;39547;45.554;12.068;2024-03-29T16:53:34;18.88;;;5.93;;
53644;SDS011;39547;45.554;12.068;2024-03-29T16:59:36;19.45;;;6.25;;
53644;SDS011;39547;45.554;12.068;2024-03-29T17:05:38;19.60;;;6.60;;
53644;SDS011;39547;45.554;12.068;2024-03-29T17:11:40;17.73;;;6.22;;
53644;SDS011;39547;45.554;12.068;2024-03-29T17:17:42;19.02;;;7.03;;
53644;SDS011;39547;45.554;12.068;2024-03-29T17:23:43;22.80;;;7.50;;
53644;SDS011;39547;45.554;12.068;2024-03-29T17:29:46;18.80;;;7.47;;
53644;SDS011;39547;45.554;12.068;2024-03-29T17:35:48;17.90;;;7.43;;
53644;SDS011;39547;45.554;12.068;2024-03-29T17:41:50;18.17;;;7.53;;
53644;SDS011;39547;45.554;12.068;2024-03-29T17:47:52;20.17;;;8.65;;
53644;SDS011;39547;45.554;12.068;2024-03-29T17:53:54;23.50;;;9.48;;
53644;SDS011;39547;45.554;12.068;2024-03-29T17:59:56;22.15;;;9.40;;
53644;SDS011;39547;45.554;12.068;2024-03-29T18:05:58;22.40;;;8.88;;
53644;SDS011;39547;45.554;12.068;2024-03-29T18:12:00;21.33;;;8.25;;
53644;SDS011;39547;45.554;12.068;2024-03-29T18:18:01;25.08;;;10.10;;
53644;SDS011;39547;45.554;12.068;2024-03-29T18:24:03;22.42;;;8.98;;
53644;SDS011;39547;45.554;12.068;2024-03-29T18:30:06;20.27;;;8.23;;
53644;SDS011;39547;45.554;12.068;2024-03-29T18:36:10;20.65;;;8.10;;
53644;SDS011;39547;45.554;12.068;2024-03-29T18:42:11;21.10;;;8.60;;
53644;SDS011;39547;45.554;12.068;2024-03-29T18:48:13;20.95;;;8.05;;
53644;SDS011;39547;45.554;12.068;2024-03-29T18:54:16;20.50;;;7.90;;
53644;SDS011;39547;45.554;12.068;2024-03-29T19:00:17;21.25;;;8.07;;
53644;SDS011;39547;45.554;12.068;2024-03-29T19:06:20;23.52;;;8.93;;
53644;SDS011;39547;45.554;12.068;2024-03-29T19:12:26;21.02;;;8.70;;
53644;SDS011;39547;45.554;12.068;2024-03-29T19:18:29;21.77;;;8.85;;
53644;SDS011;39547;45.554;12.068;2024-03-29T19:24:33;22.55;;;8.68;;
53644;SDS011;39547;45.554;12.068;2024-03-29T19:30:35;21.30;;;8.65;;
53644;SDS011;39547;45.554;12.068;2024-03-29T19:36:37;22.20;;;8.55;;
53644;SDS011;39547;45.554;12.068;2024-03-29T19:42:39;21.55;;;8.10;;
53644;SDS011;39547;45.554;12.068;2024-03-29T19:48:40;22.55;;;9.30;;
53644;SDS011;39547;45.554;12.068;2024-03-29T19:54:42;28.13;;;10.05;;
53644;SDS011;39547;45.554;12.068;2024-03-29T20:00:44;24.73;;;9.98;;
53644;SDS011;39547;45.554;12.068;2024-03-29T20:06:46;29.48;;;10.23;;
53644;SDS011;39547;45.554;12.068;2024-03-29T20:12:47;27.63;;;10.80;;
53644;SDS011;39547;45.554;12.068;2024-03-29T20:18:50;28.70;;;10.13;;
53644;SDS011;39547;45.554;12.068;2024-03-29T20:24:54;28.63;;;10.43;;
53644;SDS011;39547;45.554;12.068;2024-03-29T20:31:00;38.00;;;11.18;;
53644;SDS011;39547;45.554;12.068;2024-03-29T20:37:04;30.60;;;10.30;;
53644;SDS011;39547;45.554;12.068;2024-03-29T20:43:10;34.78;;;10.13;;
53644;SDS011;39547;45.554;12.068;2024-03-29T20:49:12;32.38;;;9.70;;
53644;SDS011;39547;45.554;12.068;2024-03-29T20:55:14;28.73;;;9.40;;
53644;SDS011;39547;45.554;12.068;2024-03-29T21:01:15;35.42;;;9.38;;
53644;SDS011;39547;45.554;12.068;2024-03-29T21:07:37;33.83;;;9.70;;
53644;SDS011;39547;45.554;12.068;2024-03-29T21:13:41;29.88;;;9.10;;
53644;SDS011;39547;45.554;12.068;2024-03-29T21:19:43;29.80;;;8.93;;
53644;SDS011;39547;45.554;12.068;2024-03-29T21:25:45;26.95;;;8.30;;
53644;SDS011;39547;45.554;12.068;2024-03-29T21:31:46;30.73;;;9.70;;
53644;SDS011;39547;45.554;12.068;2024-03-29T21:37:48;34.28;;;9.02;;
53644;SDS011;39547;45.554;12.068;2024-03-29T21:43:50;31.08;;;9.52;;
53644;SDS011;39547;45.554;12.068;2024-03-29T21:49:52;35.17;;;9.95;;
53644;SDS011;39547;45.554;12.068;2024-03-29T21:55:54;38.45;;;10.30;;
53644;SDS011;39547;45.554;12.068;2024-03-29T22:08:08;35.75;;;8.65;;
53644;SDS011;39547;45.554;12.068;2024-03-29T22:14:11;34.55;;;9.50;;
53644;SDS011;39547;45.554;12.068;2024-03-29T22:20:16;28.27;;;8.80;;
53644;SDS011;39547;45.554;12.068;2024-03-29T22:26:19;29.73;;;9.25;;
53644;SDS011;39547;45.554;12.068;2024-03-29T22:32:29;27.27;;;7.95;;
53644;SDS011;39547;45.554;12.068;2024-03-29T22:38:31;33.85;;;8.38;;
53644;SDS011;39547;45.554;12.068;2024-03-29T22:44:33;27.77;;;8.13;;
53644;SDS011;39547;45.554;12.068;2024-03-29T22:50:35;32.60;;;7.78;;
53644;SDS011;39547;45.554;12.068;2024-03-29T22:56:38;30.05;;;7.28;;
53644;SDS011;39547;45.554;12.068;2024-03-29T23:02:41;26.73;;;7.33;;
53644;SDS011;39547;45.554;12.068;2024-03-29T23:08:42;30.42;;;7.70;;
53644;SDS011;39547;45.554;12.068;2024-03-29T23:14:44;30.15;;;7.32;;
53644;SDS011;39547;45.554;12.068;2024-03-29T23:20:50;32.83;;;7.80;;
53644;SDS011;39547;45.554;12.068;2024-03-29T23:26:53;27.55;;;6.88;;
53644;SDS011;39547;45.554;12.068;2024-03-29T23:32:55;32.33;;;7.30;;
53644;SDS011;39547;45.554;12.068;2024-03-29T23:38:56;26.65;;;6.65;;
53644;SDS011;39547;45.554;12.068;2024-03-29T23:44:58;31.42;;;7.00;;
53644;SDS011;39547;45.554;12.068;2024-03-29T23:51:00;31.30;;;6.90;;
53644;SDS011;39547;45.554;12.068;2024-03-29T23:57:04;29.33;;;7.07;;
